Time;durP1;ratioP1;P1;durP2;ratioP2;P2;SDS_P1;SDS_P2;PMS_P1;PMS_P2;Temp;Humidity;BMP_temperature;BMP_pressure;BME280_temperature;BME280_humidity;BME280_pressure;Samples;Min_cycle;Max_cycle;Signal;HPM_P1;HPM_P2
2022/01/14 00:00:28;;;;;;;9.32;5.18;;;;;;;-0.76;99.61;100370.59;4075134;28;20122;-71
2022/01/14 00:02:28;;;;;;;10.70;6.35;;;;;;;-0.81;99.91;100367.84;4078222;28;20351;-72
2022/01/14 00:04:29;;;;;;;12.88;6.30;;;;;;;-0.85;100.00;100351.22;4077700;28;20438;-72
2022/01/14 00:06:30;;;;;;;9.80;5.60;;;;;;;-0.90;100.00;100352.00;4075494;28;20063;-72
2022/01/14 00:08:30;;;;;;;8.57;4.70;;;;;;;-0.88;100.00;100352.56;4075553;28;20056;-72
2022/01/14 00:10:32;;;;;;;11.30;5.68;;;;;;;-0.86;100.00;100358.56;4077250;28;20127;-72
2022/01/14 00:12:39;;;;;;;8.73;4.83;;;;;;;-0.87;100.00;100358.81;4074447;28;20059;-72
2022/01/14 00:14:41;;;;;;;8.65;4.97;;;;;;;-0.84;100.00;100366.44;4078416;28;20747;-72
2022/01/14 00:16:43;;;;;;;9.20;5.38;;;;;;;-0.89;100.00;100352.81;4075487;28;20047;-71
2022/01/14 00:18:43;;;;;;;9.43;5.50;;;;;;;-0.91;100.00;100357.66;4075523;28;20492;-72
2022/01/14 00:20:43;;;;;;;8.07;4.60;;;;;;;-0.97;100.00;100364.16;4075840;28;20087;-72
2022/01/14 00:22:44;;;;;;;10.45;5.57;;;;;;;-1.08;100.00;100359.66;4076251;28;20048;-72
2022/01/14 00:31:44;;;;;;;10.15;5.20;;;;;;;-1.25;100.00;100357.84;4076953;28;20691;-71
2022/01/14 00:33:44;;;;;;;11.98;5.53;;;;;;;-1.26;100.00;100367.09;4076862;28;20063;-72
2022/01/14 00:35:46;;;;;;;11.55;5.70;;;;;;;-1.24;100.00;100367.69;4076492;28;20102;-72
2022/01/14 00:37:46;;;;;;;8.90;5.07;;;;;;;-1.23;100.00;100363.06;4078867;28;20123;-72
2022/01/14 00:39:47;;;;;;;8.23;4.82;;;;;;;-1.25;100.00;100366.00;4081726;28;20456;-71
2022/01/14 00:41:47;;;;;;;10.07;5.50;;;;;;;-1.25;100.00;100357.84;4078231;28;20131;-71
2022/01/14 00:43:49;;;;;;;8.88;5.00;;;;;;;-1.22;100.00;100357.38;4082807;28;20113;-72
2022/01/14 00:45:51;;;;;;;11.55;6.07;;;;;;;-1.21;100.00;100361.72;4083033;28;20051;-72
2022/01/14 00:47:52;;;;;;;15.00;7.20;;;;;;;-1.23;100.00;100365.78;4089173;28;20322;-72
2022/01/14 00:49:52;;;;;;;11.32;6.00;;;;;;;-1.26;100.00;100364.38;4083316;28;20629;-72
2022/01/14 00:51:52;;;;;;;16.33;7.53;;;;;;;-1.22;100.00;100364.69;4073887;28;20048;-72
2022/01/14 00:53:52;;;;;;;9.82;5.95;;;;;;;-1.26;100.00;100361.66;4073439;28;20086;-71
2022/01/14 00:56:05;;;;;;;13.23;7.32;;;;;;;-1.25;100.00;100366.00;4073770;28;20055;-72
2022/01/14 01:00:30;;;;;;;15.40;7.25;;;;;;;-1.30;100.00;100359.72;4073800;28;20326;-72
2022/01/14 01:02:31;;;;;;;12.45;7.45;;;;;;;-1.37;100.00;100351.75;4083071;28;20504;-72
2022/01/14 01:04:35;;;;;;;12.40;6.95;;;;;;;-1.40;100.00;100351.47;4095376;28;20083;-72
2022/01/14 01:06:36;;;;;;;14.82;7.90;;;;;;;-1.42;100.00;100347.06;4084034;28;20135;-72
2022/01/14 01:08:37;;;;;;;14.50;6.95;;;;;;;-1.45;100.00;100350.31;4087971;28;20120;-72
2022/01/14 01:10:47;;;;;;;13.60;6.80;;;;;;;-1.42;100.00;100351.69;4077943;28;20047;-72
2022/01/14 01:12:54;;;;;;;13.57;7.25;;;;;;;-1.45;100.00;100355.75;4072926;28;20091;-72
2022/01/14 01:15:09;;;;;;;13.48;7.40;;;;;;;-1.46;100.00;100345.97;4073492;28;20048;-72
2022/01/14 01:17:10;;;;;;;14.23;7.70;;;;;;;-1.46;100.00;100362.25;4075089;28;20051;-72
2022/01/14 01:19:11;;;;;;;15.40;6.70;;;;;;;-1.50;100.00;100349.41;4082367;28;20050;-72
2022/01/14 01:21:12;;;;;;;13.48;7.50;;;;;;;-1.48;100.00;100347.28;4082739;28;20548;-72
2022/01/14 01:23:12;;;;;;;13.57;7.13;;;;;;;-1.55;100.00;100354.81;4081336;28;20349;-72
2022/01/14 01:25:15;;;;;;;15.15;7.95;;;;;;;-1.58;100.00;100350.69;4075384;28;20055;-71
2022/01/14 01:27:18;;;;;;;12.85;7.68;;;;;;;-1.61;100.00;100353.91;4077668;28;20048;-72
2022/01/14 01:31:37;;;;;;;16.98;7.78;;;;;;;-1.66;100.00;100350.31;4072356;28;20011;-72
2022/01/14 01:33:38;;;;;;;13.75;7.00;;;;;;;-1.72;100.00;100347.53;4072160;28;20048;-72
2022/01/14 01:35:38;;;;;;;14.75;7.10;;;;;;;-1.76;100.00;100351.81;4077990;28;20403;-71
2022/01/14 01:37:39;;;;;;;14.35;6.95;;;;;;;-1.75;100.00;100349.91;4071890;28;20189;-72
2022/01/14 01:39:39;;;;;;;11.80;7.28;;;;;;;-1.78;100.00;100345.00;4072504;28;20581;-72
2022/01/14 01:41:43;;;;;;;11.75;6.70;;;;;;;-1.79;100.00;100349.63;4073469;28;20371;-72
2022/01/14 01:43:45;;;;;;;13.55;7.18;;;;;;;-1.82;100.00;100343.84;4073220;28;20048;-72
2022/01/14 01:45:47;;;;;;;14.02;7.45;;;;;;;-1.85;100.00;100350.59;4073797;28;20040;-71
2022/01/14 01:47:52;;;;;;;12.68;7.28;;;;;;;-1.86;100.00;100357.09;4071029;28;20055;-71
2022/01/14 01:49:53;;;;;;;14.60;7.55;;;;;;;-1.94;100.00;100335.84;4073959;28;20063;-72
2022/01/14 01:51:54;;;;;;;15.25;7.38;;;;;;;-1.99;100.00;100343.91;4072649;28;20056;-72
2022/01/14 01:53:54;;;;;;;16.05;7.78;;;;;;;-2.11;100.00;100352.16;4072977;28;20053;-72
2022/01/14 01:55:55;;;;;;;15.02;7.60;;;;;;;-2.23;100.00;100339.75;4072209;28;20342;-72
2022/01/14 01:57:55;;;;;;;12.40;7.03;;;;;;;-2.19;100.00;100343.63;4086114;28;20549;-71
2022/01/14 01:59:55;;;;;;;11.73;6.85;;;;;;;-2.22;100.00;100342.22;4077270;28;20048;-72
2022/01/14 02:01:58;;;;;;;13.30;7.00;;;;;;;-2.26;100.00;100336.47;4078768;28;20051;-71
2022/01/14 02:03:58;;;;;;;;;;;;;;;-2.31;100.00;100341.00;4073142;28;20052;-71
2022/01/14 02:06:00;;;;;;;25.02;10.98;;;;;;;-2.40;100.00;100337.91;4072036;28;19946;-71
2022/01/14 02:08:00;;;;;;;22.73;9.98;;;;;;;-2.38;100.00;100334.94;4071882;28;20051;-71
2022/01/14 02:10:01;;;;;;;25.38;10.45;;;;;;;-2.44;100.00;100327.78;4073103;28;20358;-72
2022/01/14 02:12:08;;;;;;;26.42;11.75;;;;;;;-2.47;100.00;100337.25;4074476;28;20050;-72
2022/01/14 02:14:55;;;;;;;24.77;11.43;;;;;;;-2.48;100.00;100322.03;4077535;28;20430;-72
2022/01/14 02:16:58;;;;;;;20.90;9.35;;;;;;;-2.51;100.00;100319.00;4072589;28;20661;-71
2022/01/14 02:23:39;;;;;;;16.88;8.57;;;;;;;-2.45;100.00;100299.03;4072274;28;20059;-71
2022/01/14 02:25:39;;;;;;;17.05;8.32;;;;;;;-2.42;100.00;100303.94;4072315;28;20055;-71
2022/01/14 02:27:39;;;;;;;15.60;8.13;;;;;;;-2.41;100.00;100300.16;4071431;28;20089;-71
2022/01/14 02:29:40;;;;;;;17.15;8.23;;;;;;;-2.35;100.00;100307.31;4073007;28;20055;-71
2022/01/14 02:31:41;;;;;;;14.65;7.95;;;;;;;-2.34;100.00;100303.53;4072566;28;20727;-71
2022/01/14 02:33:41;;;;;;;17.17;8.32;;;;;;;-2.37;100.00;100299.44;4080619;28;20054;-71
2022/01/14 02:35:44;;;;;;;15.30;8.15;;;;;;;-2.30;100.00;100301.97;4086476;28;20394;-71
2022/01/14 02:37:45;;;;;;;16.88;7.55;;;;;;;-2.32;100.00;100287.81;4075254;28;20072;-71
2022/01/14 02:39:45;;;;;;;16.00;8.10;;;;;;;-2.36;100.00;100292.94;4072074;28;20052;-71
2022/01/14 02:41:48;;;;;;;18.40;8.35;;;;;;;-2.31;100.00;100293.03;4076058;28;20323;-72
2022/01/14 02:43:49;;;;;;;15.82;7.70;;;;;;;-2.29;100.00;100290.06;4074036;28;20059;-71
2022/01/14 02:45:54;;;;;;;17.35;8.75;;;;;;;-2.28;100.00;100297.13;4076311;28;20039;-72
2022/01/14 02:47:54;;;;;;;17.20;8.25;;;;;;;-2.29;100.00;100299.00;4071967;28;20055;-71
2022/01/14 02:49:55;;;;;;;15.43;7.47;;;;;;;-2.27;100.00;100294.16;4072876;28;20048;-71
2022/01/14 02:51:57;;;;;;;14.95;8.38;;;;;;;-2.29;100.00;100290.88;4072439;28;20058;-71
2022/01/14 02:54:10;;;;;;;15.98;7.93;;;;;;;-2.32;100.00;100287.81;4072365;28;20098;-71
2022/01/14 02:56:15;;;;;;;18.13;7.80;;;;;;;-2.34;100.00;100288.09;4072073;28;20121;-71
2022/01/14 02:58:16;;;;;;;14.02;7.43;;;;;;;-2.35;100.00;100281.03;4074655;28;20039;-72
2022/01/14 03:00:20;;;;;;;18.20;8.23;;;;;;;-2.38;100.00;100275.28;4074906;28;20047;-72
2022/01/14 03:02:21;;;;;;;15.15;7.43;;;;;;;-2.41;100.00;100284.72;4082267;28;21516;-72
2022/01/14 03:04:22;;;;;;;14.00;7.28;;;;;;;-2.43;100.00;100291.47;4071855;28;20415;-72
2022/01/14 03:06:22;;;;;;;12.80;6.72;;;;;;;-2.45;100.00;100291.72;4072691;28;20120;-72
2022/01/14 03:08:23;;;;;;;16.17;7.45;;;;;;;-2.50;100.00;100279.97;4070818;28;20428;-72
2022/01/14 03:10:24;;;;;;;13.82;7.60;;;;;;;-2.49;100.00;100289.75;4091873;28;20043;-71
2022/01/14 03:12:24;;;;;;;16.55;7.72;;;;;;;-2.50;100.00;100280.78;4082815;28;20062;-72
2022/01/14 03:14:25;;;;;;;14.95;7.90;;;;;;;-2.44;100.00;100282.53;4077469;28;20390;-72
2022/01/14 03:16:26;;;;;;;14.50;7.82;;;;;;;-2.46;100.00;100291.97;4072477;28;20082;-72
2022/01/14 03:18:36;;;;;;;13.55;7.53;;;;;;;-2.50;100.00;100286.22;4070888;28;20134;-72
2022/01/14 03:20:50;;;;;;;15.35;7.32;;;;;;;-2.50;100.00;100285.41;4071826;28;20047;-72
2022/01/14 03:23:03;;;;;;;13.75;6.95;;;;;;;-2.53;100.00;100284.00;4071784;28;20052;-71
2022/01/14 03:27:24;;;;;;;13.82;7.50;;;;;;;-2.60;100.00;100286.88;4076115;28;20443;-72
2022/01/14 03:29:25;;;;;;;16.35;7.72;;;;;;;-2.68;100.00;100284.59;4075830;28;20044;-71
2022/01/14 03:31:25;;;;;;;15.90;7.63;;;;;;;-2.73;100.00;100279.13;4071680;28;20054;-71
2022/01/14 03:33:25;;;;;;;14.63;7.18;;;;;;;-2.72;100.00;100286.16;4071967;28;20385;-71
2022/01/14 03:35:25;;;;;;;16.98;8.18;;;;;;;-2.72;100.00;100285.34;4071716;28;20469;-71
2022/01/14 03:37:26;;;;;;;14.23;7.43;;;;;;;-2.68;100.00;100281.88;4070885;28;20075;-71
2022/01/14 03:39:26;;;;;;;15.68;8.02;;;;;;;-2.66;100.00;100284.34;4071453;28;20471;-71
2022/01/14 03:41:27;;;;;;;17.55;7.85;;;;;;;-2.64;100.00;100283.03;4071218;28;20081;-72
2022/01/14 03:43:27;;;;;;;17.08;8.18;;;;;;;-2.60;100.00;100269.81;4071331;28;20056;-72
2022/01/14 03:45:28;;;;;;;19.15;8.25;;;;;;;-2.64;100.00;100280.34;4075122;28;20058;-71
2022/01/14 03:47:28;;;;;;;17.45;8.35;;;;;;;-2.66;100.00;100271.59;4070605;28;20079;-71
2022/01/14 03:49:28;;;;;;;14.65;7.10;;;;;;;-2.65;100.00;100267.84;4072136;28;20079;-71
2022/01/14 03:51:29;;;;;;;15.68;7.40;;;;;;;-2.73;100.00;100264.72;4075331;28;20047;-71
2022/01/14 03:53:30;;;;;;;16.15;8.05;;;;;;;-2.75;100.00;100266.84;4072842;28;20048;-71
2022/01/14 03:55:30;;;;;;;18.88;8.93;;;;;;;-2.75;100.00;100273.09;4071412;28;20336;-71
2022/01/14 03:57:30;;;;;;;16.10;8.23;;;;;;;-2.75;100.00;100272.28;4073156;28;20051;-71
2022/01/14 03:59:31;;;;;;;14.07;7.38;;;;;;;-2.78;100.00;100262.75;4073141;28;20484;-71
2022/01/14 04:01:31;;;;;;;14.98;7.22;;;;;;;-2.78;100.00;100261.94;4070869;28;20148;-71
2022/01/14 04:03:31;;;;;;;15.75;7.18;;;;;;;-2.83;100.00;100266.19;4071194;28;20047;-71
2022/01/14 04:05:32;;;;;;;12.65;6.65;;;;;;;-2.84;100.00;100259.16;4073573;28;20142;-71
2022/01/14 04:07:33;;;;;;;16.20;8.02;;;;;;;-2.85;100.00;100254.78;4072174;28;20109;-71
2022/01/14 04:09:36;;;;;;;15.48;7.95;;;;;;;-2.89;100.00;100260.97;4077588;28;20055;-71
2022/01/14 04:11:38;;;;;;;14.68;7.85;;;;;;;-2.96;100.00;100250.28;4079383;28;20044;-71
2022/01/14 04:13:50;;;;;;;17.67;7.65;;;;;;;-2.96;100.00;100253.00;4071901;28;20438;-71
2022/01/14 04:15:51;;;;;;;14.82;7.50;;;;;;;-2.94;100.00;100250.84;4072954;28;20047;-71
2022/01/14 04:17:51;;;;;;;14.20;7.60;;;;;;;-2.97;100.00;100250.53;4070478;28;20513;-71
2022/01/14 04:19:51;;;;;;;16.85;7.57;;;;;;;-3.04;100.00;100258.00;4072355;28;20055;-71
2022/01/14 04:21:52;;;;;;;14.52;7.32;;;;;;;-3.04;100.00;100255.28;4079971;28;20048;-71
2022/01/14 04:23:52;;;;;;;16.50;8.48;;;;;;;-3.06;100.00;100254.69;4077046;28;20058;-71
2022/01/14 04:25:54;;;;;;;17.33;8.63;;;;;;;-3.02;100.00;100245.84;4074166;28;20056;-71
2022/01/14 04:27:54;;;;;;;15.40;6.93;;;;;;;-3.12;100.00;100256.53;4072828;28;20408;-71
2022/01/14 04:29:54;;;;;;;14.82;7.63;;;;;;;-3.17;100.00;100245.59;4072738;28;20476;-71
2022/01/14 04:31:55;;;;;;;13.32;7.05;;;;;;;-3.19;100.00;100250.44;4092258;28;20051;-71
2022/01/14 04:33:55;;;;;;;13.88;7.22;;;;;;;-3.12;100.00;100248.41;4080993;28;20302;-71
2022/01/14 04:35:57;;;;;;;17.00;8.18;;;;;;;-3.20;100.00;100249.63;4082214;28;20066;-71
2022/01/14 04:37:58;;;;;;;19.95;7.57;;;;;;;-3.17;100.00;100243.69;4080297;28;20051;-71
2022/01/14 04:39:58;;;;;;;15.43;7.95;;;;;;;-3.27;100.00;100243.53;4085140;28;20775;-71
2022/01/14 04:42:01;;;;;;;23.48;8.82;;;;;;;-3.23;100.00;100241.16;4081976;28;20049;-72
2022/01/14 04:44:01;;;;;;;18.90;8.98;;;;;;;-3.27;100.00;100243.53;4084297;28;20328;-72
2022/01/14 04:48:08;;;;;;;15.90;8.15;;;;;;;-3.33;100.00;100235.56;4076486;28;20074;-71
2022/01/14 04:50:09;;;;;;;16.17;8.00;;;;;;;-3.38;100.00;100224.66;4074192;28;20063;-71
2022/01/14 04:52:10;;;;;;;19.02;9.07;;;;;;;-3.40;100.00;100225.69;4084054;28;20051;-71
2022/01/14 04:54:10;;;;;;;17.80;9.10;;;;;;;-3.37;100.00;100234.41;4081529;28;20043;-71
2022/01/14 04:56:11;;;;;;;16.98;8.70;;;;;;;-3.31;100.00;100226.16;4084134;28;20064;-71
2022/01/14 04:58:11;;;;;;;19.50;9.45;;;;;;;-3.27;100.00;100229.19;4074278;28;20802;-71
2022/01/14 05:00:15;;;;;;;19.42;9.95;;;;;;;-3.21;100.00;100225.50;4088318;28;20649;-71
2022/01/14 05:02:16;;;;;;;16.30;9.10;;;;;;;-3.18;100.00;100216.88;4089986;28;20038;-71
2022/01/14 05:04:16;;;;;;;16.85;9.57;;;;;;;-3.18;100.00;100215.00;4084492;28;20118;-71
2022/01/14 05:06:17;;;;;;;18.10;9.07;;;;;;;-3.24;100.00;100215.16;4084866;28;20202;-72
2022/01/14 05:08:35;;;;;;;16.88;8.85;;;;;;;-3.29;100.00;100207.78;4086353;28;20403;-72
2022/01/14 05:10:48;;;;;;;16.30;8.82;;;;;;;-3.29;100.00;100215.06;4096095;28;20055;-72
2022/01/14 05:12:48;;;;;;;;;;;;;;;-3.33;100.00;100220.13;4089026;28;20059;-71
2022/01/14 05:14:48;;;;;;;17.27;8.30;;;;;;;-3.42;100.00;100206.19;4084237;28;19922;-71
2022/01/14 05:16:49;;;;;;;17.05;9.25;;;;;;;-3.41;100.00;100215.13;4082780;28;20055;-71
2022/01/14 05:18:49;;;;;;;16.92;9.35;;;;;;;-3.43;100.00;100215.38;4081103;28;20113;-71
2022/01/14 05:20:51;;;;;;;15.52;8.68;;;;;;;-3.46;100.00;100215.88;4079418;28;20051;-71
2022/01/14 05:22:51;;;;;;;18.58;8.88;;;;;;;-3.49;100.00;100210.94;4079907;28;20051;-71
2022/01/14 05:24:52;;;;;;;16.50;8.80;;;;;;;-3.57;100.00;100203.22;4084231;28;20101;-71
2022/01/14 05:26:52;;;;;;;14.38;8.13;;;;;;;-3.56;100.00;100204.03;4076228;28;20536;-71
2022/01/14 05:28:53;;;;;;;19.60;9.48;;;;;;;-3.54;100.00;100213.56;4079947;28;20318;-71
2022/01/14 05:30:53;;;;;;;16.85;8.77;;;;;;;-3.49;100.00;100212.81;4079311;28;20450;-71
2022/01/14 05:32:54;;;;;;;19.55;9.73;;;;;;;-3.52;100.00;100199.78;4084197;28;20039;-71
2022/01/14 05:34:55;;;;;;;18.70;9.95;;;;;;;-3.48;100.00;100209.88;4075872;28;20048;-71
2022/01/14 05:36:55;;;;;;;19.00;9.95;;;;;;;-3.43;100.00;100206.44;4076590;28;20312;-71
2022/01/14 05:38:56;;;;;;;26.10;12.23;;;;;;;-3.39;100.00;100207.59;4074350;28;20098;-71
2022/01/14 05:40:56;;;;;;;23.33;10.90;;;;;;;-3.38;100.00;100201.13;4074837;28;20043;-71
2022/01/14 05:42:57;;;;;;;22.55;11.55;;;;;;;-3.40;100.00;100198.63;4075973;28;20044;-72
2022/01/14 05:44:57;;;;;;;19.90;10.77;;;;;;;-3.35;100.00;100207.94;4074342;28;20035;-72
2022/01/14 05:46:58;;;;;;;18.77;9.63;;;;;;;-3.44;100.00;100194.78;4074773;28;20055;-71
2022/01/14 05:48:59;;;;;;;17.02;8.32;;;;;;;-3.47;100.00;100186.34;4074814;28;20055;-71
2022/01/14 05:50:59;;;;;;;17.08;8.43;;;;;;;-3.46;100.00;100202.34;4074427;28;20127;-71
2022/01/14 05:52:59;;;;;;;17.95;8.23;;;;;;;-3.51;100.00;100194.13;4075967;28;20802;-71
2022/01/14 05:55:00;;;;;;;24.20;10.60;;;;;;;-3.52;100.00;100194.38;4074760;28;20669;-71
2022/01/14 05:57:00;;;;;;;22.38;10.68;;;;;;;-3.51;100.00;100191.41;4075152;28;20138;-71
2022/01/14 05:59:00;;;;;;;23.65;12.00;;;;;;;-3.57;100.00;100191.56;4085192;28;20288;-71
2022/01/14 06:01:01;;;;;;;28.38;12.20;;;;;;;-3.60;100.00;100198.28;4084927;28;20134;-71
2022/01/14 06:03:01;;;;;;;20.70;10.98;;;;;;;-3.60;100.00;100192.88;4077567;28;20720;-71
2022/01/14 06:05:02;;;;;;;22.52;11.35;;;;;;;-3.59;100.00;100205.34;4075961;28;20578;-71
2022/01/14 06:07:03;;;;;;;22.80;11.77;;;;;;;-3.57;100.00;100195.09;4072436;28;20048;-71
2022/01/14 06:09:04;;;;;;;25.88;11.30;;;;;;;-3.59;100.00;100194.53;4075938;28;20464;-71
2022/01/14 06:11:04;;;;;;;22.20;10.65;;;;;;;-3.67;100.00;100189.50;4077579;28;20178;-71
2022/01/14 06:13:05;;;;;;;24.75;12.07;;;;;;;-3.73;100.00;100190.47;4072481;28;20062;-71
2022/01/14 06:15:05;;;;;;;23.98;10.77;;;;;;;-3.70;100.00;100192.72;4076677;28;20051;-71
2022/01/14 06:17:06;;;;;;;20.70;9.98;;;;;;;-3.69;100.00;100192.47;4076662;28;20048;-71
2022/01/14 06:19:06;;;;;;;20.33;11.30;;;;;;;-3.66;100.00;100188.44;4073652;28;20094;-71
2022/01/14 06:21:07;;;;;;;21.20;11.07;;;;;;;-3.66;100.00;100193.84;4078605;28;20055;-71
2022/01/14 06:23:07;;;;;;;19.67;10.23;;;;;;;-3.63;100.00;100190.69;4072693;28;20321;-71
2022/01/14 06:25:08;;;;;;;21.00;10.18;;;;;;;-3.67;100.00;100175.97;4071430;28;20071;-71
2022/01/14 06:27:08;;;;;;;18.95;9.43;;;;;;;-3.63;100.00;100179.03;4072709;28;20084;-71
2022/01/14 06:29:08;;;;;;;22.67;11.27;;;;;;;-3.67;100.00;100178.69;4082585;28;20422;-71
2022/01/14 06:31:09;;;;;;;22.55;11.27;;;;;;;-3.74;100.00;100178.00;4086468;28;20494;-72
2022/01/14 06:33:10;;;;;;;21.40;9.80;;;;;;;-3.77;100.00;100181.22;4085875;28;20159;-71
2022/01/14 06:35:12;;;;;;;18.77;9.55;;;;;;;-3.83;100.00;100190.28;4088862;28;20044;-71
2022/01/14 06:37:13;;;;;;;19.67;10.23;;;;;;;-3.87;100.00;100173.72;4092360;28;20577;-71
2022/01/14 06:39:13;;;;;;;18.95;9.35;;;;;;;-3.81;100.00;100178.16;4083722;28;20055;-71
2022/01/14 06:41:13;;;;;;;26.55;12.38;;;;;;;-3.76;100.00;100185.56;4076062;28;20098;-71
2022/01/14 06:43:15;;;;;;;25.65;10.80;;;;;;;-3.77;100.00;100198.25;4073693;28;20344;-71
2022/01/14 06:45:16;;;;;;;21.05;10.65;;;;;;;-3.74;100.00;100188.81;4075362;28;20054;-71
2022/01/14 06:47:16;;;;;;;22.92;12.27;;;;;;;-3.71;100.00;100185.66;4071562;28;20055;-71
2022/01/14 06:49:17;;;;;;;26.23;12.50;;;;;;;-3.70;100.00;100190.00;4074722;28;20078;-71
2022/01/14 06:51:17;;;;;;;21.58;11.25;;;;;;;-3.67;100.00;100184.09;4071939;28;20047;-71
2022/01/14 06:53:18;;;;;;;21.48;11.20;;;;;;;-3.71;100.00;100178.38;4072459;28;20487;-71
2022/01/14 06:55:18;;;;;;;23.92;11.43;;;;;;;-3.78;100.00;100182.28;4073523;28;20154;-71
2022/01/14 06:57:19;;;;;;;25.45;11.30;;;;;;;-3.80;100.00;100179.81;4071878;28;20291;-71
2022/01/14 06:59:19;;;;;;;24.05;11.05;;;;;;;-3.82;100.00;100186.50;4074083;28;20054;-71
2022/01/14 07:01:19;;;;;;;21.67;10.68;;;;;;;-3.86;100.00;100193.47;4073565;28;20052;-71
2022/01/14 07:03:20;;;;;;;20.30;10.73;;;;;;;-3.86;100.00;100188.06;4071857;28;20433;-71
2022/01/14 07:05:20;;;;;;;25.75;10.15;;;;;;;-3.84;100.00;100188.66;4072894;28;20606;-71
2022/01/14 07:07:20;;;;;;;19.80;9.70;;;;;;;-3.84;100.00;100181.34;4071631;28;20074;-71
2022/01/14 07:09:21;;;;;;;16.73;8.82;;;;;;;-3.89;100.00;100183.13;4075035;28;20047;-71
2022/01/14 07:11:26;;;;;;;20.83;9.57;;;;;;;-3.96;100.00;100180.59;4072532;28;20384;-71
2022/01/14 07:13:26;;;;;;;18.02;9.23;;;;;;;-3.96;100.00;100189.53;4074048;28;20130;-71
2022/01/14 07:15:26;;;;;;;24.05;10.40;;;;;;;-3.96;100.00;100188.72;4074665;28;20081;-71
2022/01/14 07:17:27;;;;;;;18.73;9.82;;;;;;;-3.90;100.00;100192.31;4070550;28;20047;-71
2022/01/14 07:19:27;;;;;;;21.95;11.32;;;;;;;-3.86;100.00;100197.00;4072431;28;20436;-71
2022/01/14 07:21:28;;;;;;;22.70;10.80;;;;;;;-3.82;100.00;100194.63;4074165;28;20485;-71
2022/01/14 07:23:28;;;;;;;23.25;11.57;;;;;;;-3.74;100.00;100189.66;4071772;28;20575;-71
2022/01/14 07:25:28;;;;;;;24.98;12.15;;;;;;;-3.64;100.00;100197.16;4071831;28;20051;-71
2022/01/14 07:27:29;;;;;;;32.70;16.17;;;;;;;-3.61;100.00;100190.44;4071887;28;20480;-71
2022/01/14 07:29:29;;;;;;;37.80;20.13;;;;;;;-3.48;100.00;100200.94;4074100;28;20491;-71
2022/01/14 07:31:29;;;;;;;33.00;16.27;;;;;;;-3.40;100.00;100201.34;4070765;28;20429;-71
2022/01/14 07:33:30;;;;;;;32.72;16.40;;;;;;;-3.31;100.00;100192.81;4072791;28;20361;-71
2022/01/14 07:35:30;;;;;;;31.30;14.88;;;;;;;-3.26;100.00;100198.34;4072382;28;20450;-71
2022/01/14 07:37:31;;;;;;;24.23;13.73;;;;;;;-3.26;100.00;100201.03;4072849;28;20439;-71
2022/01/14 07:39:31;;;;;;;23.15;11.73;;;;;;;-3.28;100.00;100193.16;4072668;28;20384;-71
2022/01/14 07:41:32;;;;;;;26.58;11.68;;;;;;;-3.21;100.00;100185.72;4074283;28;20056;-71
2022/01/14 07:43:34;;;;;;;23.75;11.30;;;;;;;-3.20;100.00;100192.75;4071896;28;20066;-71
2022/01/14 07:45:35;;;;;;;24.55;11.05;;;;;;;-3.17;100.00;100200.38;4071455;28;20058;-71
2022/01/14 07:47:37;;;;;;;49.10;20.17;;;;;;;-3.12;100.00;100199.66;4072362;28;20056;-71
2022/01/14 07:49:37;;;;;;;35.85;15.52;;;;;;;-3.08;100.00;100205.38;4071973;28;20260;-71
2022/01/14 07:51:38;;;;;;;27.58;14.10;;;;;;;-3.05;100.00;100205.72;4074548;28;20562;-71
2022/01/14 07:53:40;;;;;;;28.83;14.70;;;;;;;-3.03;100.00;100191.94;4072115;28;20493;-71
2022/01/14 07:55:40;;;;;;;28.70;13.75;;;;;;;-3.02;100.00;100202.53;4077454;28;20102;-70
2022/01/14 07:57:41;;;;;;;27.58;13.82;;;;;;;-3.09;100.00;100198.34;4074776;28;20048;-70
2022/01/14 07:59:41;;;;;;;25.42;13.02;;;;;;;-3.11;100.00;100215.66;4074039;28;20074;-70
2022/01/14 08:01:43;;;;;;;26.25;12.00;;;;;;;-3.16;100.00;100206.63;4077292;28;20048;-71
2022/01/14 08:03:43;;;;;;;24.23;12.10;;;;;;;-3.22;100.00;100210.31;4074629;28;20090;-71
2022/01/14 08:05:45;;;;;;;26.70;14.02;;;;;;;-3.27;100.00;100215.66;4077167;28;20043;-71
2022/01/14 08:07:47;;;;;;;23.20;12.93;;;;;;;-3.26;100.00;100204.56;4075004;28;20097;-71
2022/01/14 08:09:47;;;;;;;28.10;14.10;;;;;;;-3.25;100.00;100203.50;4076833;28;20043;-71
2022/01/14 08:11:47;;;;;;;31.30;13.85;;;;;;;-3.23;100.00;100197.84;4075170;28;20055;-71
2022/01/14 08:13:48;;;;;;;24.92;13.90;;;;;;;-3.21;100.00;100199.25;4078180;28;20097;-71
2022/01/14 08:15:48;;;;;;;23.50;12.80;;;;;;;-3.18;100.00;100200.63;4074579;28;20087;-71
2022/01/14 08:17:48;;;;;;;26.73;13.07;;;;;;;-3.15;100.00;100200.13;4073742;28;20078;-71
2022/01/14 08:19:49;;;;;;;23.30;12.05;;;;;;;-3.14;100.00;100199.91;4073887;28;20047;-71
2022/01/14 08:21:49;;;;;;;24.48;12.55;;;;;;;-3.16;100.00;100198.50;4075076;28;20094;-71
2022/01/14 08:23:49;;;;;;;24.55;12.70;;;;;;;-3.11;100.00;100195.88;4073766;28;20052;-71
2022/01/14 08:25:53;;;;;;;25.27;13.10;;;;;;;-3.08;100.00;100186.44;4074624;28;20048;-71
2022/01/14 08:27:53;;;;;;;27.67;12.70;;;;;;;-3.08;100.00;100189.97;4073652;28;20056;-71
2022/01/14 08:29:54;;;;;;;24.45;12.88;;;;;;;-3.04;100.00;100185.72;4078853;28;20051;-71
2022/01/14 08:31:55;;;;;;;39.45;17.77;;;;;;;-2.95;100.00;100180.69;4073573;28;20047;-71
2022/01/14 08:33:56;;;;;;;38.20;17.88;;;;;;;-2.84;100.00;100172.47;4075017;28;20079;-71
2022/01/14 08:35:56;;;;;;;40.47;16.48;;;;;;;-2.77;100.00;100168.75;4074810;28;20051;-71
2022/01/14 08:37:57;;;;;;;33.35;16.42;;;;;;;-2.66;100.00;100173.25;4076224;28;20052;-71
2022/01/14 08:39:57;;;;;;;33.58;16.27;;;;;;;-2.60;100.00;100174.97;4075016;28;20521;-71
2022/01/14 08:41:58;;;;;;;28.35;13.77;;;;;;;-2.54;100.00;100184.81;4073945;28;20450;-71
2022/01/14 08:43:59;;;;;;;24.83;12.30;;;;;;;-2.46;100.00;100181.66;4074315;28;20125;-71
2022/01/14 08:46:02;;;;;;;26.48;12.57;;;;;;;-2.38;100.00;100178.53;4076134;28;20051;-71
2022/01/14 08:48:03;;;;;;;24.40;12.20;;;;;;;-2.34;100.00;100173.41;4079163;28;20118;-71
2022/01/14 08:50:04;;;;;;;23.38;12.43;;;;;;;-2.33;100.00;100173.13;4073951;28;20048;-71
2022/01/14 08:52:05;;;;;;;22.80;11.13;;;;;;;-2.19;100.00;100164.63;4074165;28;20107;-71
2022/01/14 08:54:05;;;;;;;24.05;11.68;;;;;;;-2.11;100.00;100161.47;4074951;28;20858;-71
2022/01/14 08:56:05;;;;;;;24.25;11.68;;;;;;;-2.01;100.00;100165.13;4078835;28;20031;-71
2022/01/14 08:58:07;;;;;;;26.33;13.10;;;;;;;-1.96;100.00;100164.38;4078369;28;20416;-71
2022/01/14 09:00:08;;;;;;;22.63;10.52;;;;;;;-1.93;100.00;100163.84;4073749;28;20324;-71
2022/01/14 09:02:08;;;;;;;23.40;11.85;;;;;;;-1.91;100.00;100158.97;4074461;28;20490;-71
2022/01/14 09:04:09;;;;;;;23.08;11.25;;;;;;;-1.88;100.00;100160.38;4073280;28;20392;-71
2022/01/14 09:06:09;;;;;;;20.35;11.15;;;;;;;-1.90;100.00;100152.50;4075637;28;20031;-71
2022/01/14 09:08:10;;;;;;;31.80;15.68;;;;;;;-1.73;100.00;100155.94;4074621;28;20479;-71
2022/01/14 09:10:11;;;;;;;22.92;13.50;;;;;;;-1.66;100.00;100158.41;4080490;28;20484;-71
2022/01/14 09:12:15;;;;;;;25.77;12.45;;;;;;;-1.60;100.00;100162.81;4076773;28;20047;-71
2022/01/14 09:14:16;;;;;;;21.60;11.07;;;;;;;-1.50;100.00;100167.53;4073374;28;20044;-71
2022/01/14 09:16:20;;;;;;;19.65;9.63;;;;;;;-1.36;100.00;100182.31;4073650;28;20134;-71
2022/01/14 09:18:20;;;;;;;27.25;11.43;;;;;;;-1.13;100.00;100179.28;4073765;28;20035;-71
2022/01/14 09:20:21;;;;;;;19.75;9.90;;;;;;;-0.98;100.00;100184.00;4073158;28;20098;-71
2022/01/14 09:22:22;;;;;;;19.67;9.75;;;;;;;-0.79;100.00;100189.84;4074586;28;20547;-71
2022/01/14 09:24:22;;;;;;;21.23;10.50;;;;;;;-0.67;100.00;100184.19;4073230;28;20377;-71
2022/01/14 09:26:23;;;;;;;20.75;10.05;;;;;;;-0.53;100.00;100190.81;4075174;28;20105;-71
2022/01/14 09:28:23;;;;;;;17.67;8.95;;;;;;;-0.35;100.00;100193.09;4075178;28;20047;-71
2022/01/14 09:30:24;;;;;;;18.17;8.90;;;;;;;-0.24;100.00;100199.41;4073311;28;20047;-71